createdAt,value
2023-01-12T00:02:24.731Z,97.14
2023-01-12T00:04:53.578Z,97.43
2023-01-12T00:07:22.273Z,97.43
2023-01-12T00:09:50.958Z,97.52
2023-01-12T00:12:20.061Z,98.02
2023-01-12T00:14:49.246Z,98.13
2023-01-12T00:17:20.086Z,97.30
2023-01-12T00:19:50.109Z,97.54
2023-01-12T00:22:19.608Z,98.66
2023-01-12T00:24:50.168Z,98.98
2023-01-12T00:27:21.374Z,97.84
2023-01-12T00:29:51.380Z,97.01
2023-01-12T00:32:21.713Z,97.09
2023-01-12T00:34:50.610Z,96.97
2023-01-12T00:37:20.109Z,95.79
2023-01-12T00:40:01.457Z,95.73
2023-01-12T00:42:49.863Z,95.76
2023-01-12T00:45:22.811Z,96.07
2023-01-12T00:47:53.716Z,97.10
2023-01-12T00:50:24.078Z,97.05
2023-01-12T00:52:54.409Z,97.37
2023-01-12T00:55:24.745Z,97.25
2023-01-12T00:57:54.185Z,97.11
2023-01-12T01:00:23.864Z,97.68
2023-01-12T01:02:53.673Z,98.27
2023-01-12T01:05:23.643Z,98.67
2023-01-12T01:07:53.297Z,99.13
2023-01-12T01:10:23.072Z,99.27
2023-01-12T01:12:52.353Z,99.39
2023-01-12T01:15:21.292Z,99.59
2023-01-12T01:17:50.384Z,99.59
2023-01-12T01:20:21.057Z,100.00
2023-01-12T01:22:50.334Z,100.00
2023-01-12T01:25:19.820Z,100.00
2023-01-12T01:27:50.308Z,100.00
2023-01-12T01:30:20.383Z,99.94
2023-01-12T01:32:49.467Z,100.00
2023-01-12T01:35:18.967Z,100.00
2023-01-12T01:37:48.723Z,100.00
2023-01-12T01:40:19.106Z,100.00
2023-01-12T01:42:49.940Z,100.00
2023-01-12T01:45:19.917Z,100.00
2023-01-12T01:48:03.208Z,100.00
2023-01-12T01:50:39.261Z,100.00
2023-01-12T01:53:14.807Z,100.00
2023-01-12T01:55:51.356Z,100.00
2023-01-12T01:58:29.766Z,100.00
2023-01-12T02:01:00.593Z,100.00
2023-01-12T02:03:34.068Z,100.00
2023-01-12T02:06:08.885Z,100.00
2023-01-12T02:08:53.904Z,99.46
2023-01-12T02:11:47.570Z,98.35
2023-01-12T02:14:36.655Z,98.93
2023-01-12T02:17:26.128Z,100.00
2023-01-12T02:20:10.775Z,100.00
2023-01-12T02:22:52.974Z,100.00
2023-01-12T02:25:47.658Z,100.00
2023-01-12T02:28:29.382Z,100.00
2023-01-12T02:31:41.662Z,100.00
2023-01-12T02:34:27.816Z,98.85
2023-01-12T02:37:05.325Z,99.40
2023-01-12T02:39:53.596Z,98.92
2023-01-12T02:42:51.094Z,98.43
2023-01-12T02:45:38.095Z,99.71
2023-01-12T02:48:36.351Z,99.82
2023-01-12T02:51:25.409Z,100.00
2023-01-12T02:54:06.186Z,100.00
2023-01-12T02:56:43.066Z,100.00
2023-01-12T02:59:24.537Z,100.00
2023-01-12T03:01:58.563Z,100.00
2023-01-12T03:04:30.749Z,100.00
2023-01-12T03:07:02.096Z,100.00
2023-01-12T03:09:33.823Z,99.36
2023-01-12T03:12:13.796Z,98.47
2023-01-12T03:14:50.110Z,99.89
2023-01-12T03:17:32.404Z,100.00
2023-01-12T03:20:30.010Z,100.00
2023-01-12T03:23:07.017Z,100.00
2023-01-12T03:25:38.610Z,100.00
2023-01-12T03:28:10.393Z,100.00
2023-01-12T03:30:45.440Z,100.00
2023-01-12T03:33:15.499Z,99.69
2023-01-12T03:35:51.591Z,98.76
2023-01-12T03:38:37.310Z,98.99
2023-01-12T03:41:37.020Z,99.27
2023-01-12T03:44:13.906Z,99.43
2023-01-12T03:46:52.821Z,99.26
2023-01-12T03:50:14.762Z,99.33
2023-01-12T03:52:46.756Z,100.00
2023-01-12T03:55:20.236Z,100.00
2023-01-12T03:57:51.241Z,100.00
2023-01-12T04:00:22.411Z,100.00
2023-01-12T04:03:02.408Z,100.00
2023-01-12T04:05:32.367Z,100.00
2023-01-12T04:08:02.776Z,100.00
2023-01-12T04:10:33.966Z,99.79
2023-01-12T04:13:03.971Z,100.00
2023-01-12T04:15:38.278Z,100.00
2023-01-12T04:18:07.977Z,100.00
2023-01-12T04:20:38.608Z,100.00
2023-01-12T04:23:08.593Z,100.00
2023-01-12T04:25:38.421Z,100.00
2023-01-12T04:28:07.630Z,100.00
2023-01-12T04:30:37.850Z,100.00
2023-01-12T04:33:09.048Z,100.00
2023-01-12T04:35:38.999Z,100.00
2023-01-12T04:38:11.019Z,99.97
2023-01-12T04:40:41.057Z,100.00
2023-01-12T04:43:12.392Z,100.00
2023-01-12T04:45:44.139Z,100.00
2023-01-12T04:48:15.423Z,100.00
2023-01-12T04:50:45.149Z,100.00
2023-01-12T04:53:14.793Z,100.00
2023-01-12T04:55:44.671Z,99.97
2023-01-12T04:58:14.069Z,99.53
2023-01-12T05:00:43.298Z,100.00
2023-01-12T05:03:13.791Z,100.00
2023-01-12T05:05:42.989Z,100.00
2023-01-12T05:08:31.053Z,100.00
2023-01-12T05:11:02.282Z,100.00
2023-01-12T05:13:32.976Z,100.00
2023-01-12T05:16:16.996Z,100.00
2023-01-12T05:18:47.014Z,100.00
2023-01-12T05:21:18.371Z,100.00
2023-01-12T05:23:48.107Z,100.00
2023-01-12T05:26:17.264Z,100.00
2023-01-12T05:28:51.034Z,100.00
2023-01-12T05:31:20.443Z,100.00
2023-01-12T05:33:49.314Z,100.00
2023-01-12T05:36:18.630Z,100.00
2023-01-12T05:38:47.412Z,100.00
2023-01-12T05:41:16.613Z,100.00
2023-01-12T05:43:51.147Z,100.00
2023-01-12T05:46:40.611Z,100.00
2023-01-12T05:49:11.321Z,100.00
2023-01-12T05:51:40.775Z,100.00
2023-01-12T05:54:10.182Z,100.00
2023-01-12T05:56:39.229Z,100.00
2023-01-12T05:59:10.419Z,100.00
2023-01-12T06:01:41.087Z,100.00
2023-01-12T06:04:10.758Z,100.00
2023-01-12T06:06:39.746Z,100.00
2023-01-12T06:09:09.020Z,100.00
2023-01-12T06:11:56.850Z,100.00
2023-01-12T06:14:26.249Z,100.00
2023-01-12T06:16:55.242Z,100.00
2023-01-12T06:19:24.350Z,100.00
2023-01-12T06:21:54.969Z,100.00
2023-01-12T06:24:24.781Z,100.00
2023-01-12T06:26:55.101Z,100.00
2023-01-12T06:29:24.297Z,100.00
2023-01-12T06:31:53.190Z,100.00
2023-01-12T06:34:22.286Z,100.00
2023-01-12T06:36:51.527Z,100.00
2023-01-12T06:39:20.577Z,100.00
2023-01-12T06:42:08.009Z,100.00
2023-01-12T06:44:36.897Z,100.00
2023-01-12T06:47:05.999Z,100.00
2023-01-12T06:49:34.784Z,100.00
2023-01-12T06:52:03.969Z,100.00
2023-01-12T06:54:32.653Z,100.00
2023-01-12T06:57:01.340Z,100.00
2023-01-12T06:59:30.135Z,100.00
2023-01-12T07:01:59.364Z,100.00
2023-01-12T07:04:28.354Z,100.00
2023-01-12T07:06:57.421Z,100.00
2023-01-12T07:09:26.307Z,100.00
2023-01-12T07:11:55.025Z,100.00
2023-01-12T07:14:25.114Z,100.00
2023-01-12T07:16:54.000Z,100.00
2023-01-12T07:19:22.997Z,100.00
2023-01-12T07:21:51.579Z,100.00
2023-01-12T07:24:20.672Z,100.00
2023-01-12T07:26:50.604Z,100.00
2023-01-12T07:29:19.817Z,100.00
2023-01-12T07:31:49.320Z,100.00
2023-01-12T07:34:18.699Z,100.00
2023-01-12T07:36:51.679Z,100.00
2023-01-12T07:39:20.584Z,100.00
2023-01-12T07:42:09.281Z,100.00
2023-01-12T07:44:38.105Z,100.00
2023-01-12T07:47:06.911Z,100.00
2023-01-12T07:49:35.889Z,100.00
2023-01-12T07:52:04.986Z,100.00
2023-01-12T07:54:36.390Z,100.00
2023-01-12T07:57:08.193Z,100.00
2023-01-12T07:59:37.182Z,100.00
2023-01-12T08:02:07.270Z,100.00
2023-01-12T08:04:35.985Z,100.00
2023-01-12T08:07:04.879Z,100.00
2023-01-12T08:09:33.867Z,100.00
2023-01-12T08:12:02.354Z,100.00
2023-01-12T08:14:39.532Z,100.00
2023-01-12T08:17:14.262Z,100.00
2023-01-12T08:20:02.722Z,100.00
2023-01-12T08:22:37.350Z,100.00
2023-01-12T08:25:31.148Z,99.99
2023-01-12T08:28:05.124Z,99.92
2023-01-12T08:30:34.013Z,99.66
2023-01-12T08:33:03.221Z,99.46
2023-01-12T08:35:34.659Z,99.34
2023-01-12T08:38:03.781Z,99.87
2023-01-12T08:40:51.386Z,99.81
2023-01-12T08:43:40.055Z,100.00
2023-01-12T08:46:09.560Z,100.00
2023-01-12T08:48:39.247Z,100.00
2023-01-12T08:51:09.385Z,100.00
2023-01-12T08:53:38.275Z,100.00
2023-01-12T08:56:07.761Z,100.00
2023-01-12T08:58:36.965Z,100.00
2023-01-12T09:01:14.177Z,100.00
2023-01-12T09:03:44.690Z,100.00
2023-01-12T09:06:22.586Z,100.00
2023-01-12T09:08:56.503Z,100.00
2023-01-12T09:11:25.994Z,100.00
2023-01-12T09:13:56.373Z,100.00
2023-01-12T09:16:27.409Z,99.98
2023-01-12T09:18:57.190Z,99.73
2023-01-12T09:21:28.063Z,99.75
2023-01-12T09:23:57.408Z,100.00
2023-01-12T09:26:32.377Z,99.99
2023-01-12T09:29:02.635Z,99.85
2023-01-12T09:31:32.833Z,99.79
2023-01-12T09:34:02.205Z,99.74
2023-01-12T09:36:36.352Z,100.00
2023-01-12T09:39:12.537Z,100.00
2023-01-12T09:42:08.990Z,100.00
2023-01-12T09:45:00.025Z,100.00
2023-01-12T09:47:32.072Z,100.00
2023-01-12T09:50:14.493Z,100.00
2023-01-12T09:52:49.514Z,100.00
2023-01-12T09:55:21.872Z,100.00
2023-01-12T09:58:17.090Z,100.00
2023-01-12T10:00:57.185Z,100.00
2023-01-12T10:03:38.978Z,100.00
2023-01-12T10:06:14.585Z,100.00
2023-01-12T10:08:56.331Z,99.99
2023-01-12T10:11:51.171Z,99.77
2023-01-12T10:14:57.643Z,99.69
2023-01-12T10:17:51.619Z,100.00
2023-01-12T10:20:35.871Z,100.00
2023-01-12T10:23:07.629Z,100.00
2023-01-12T10:25:41.246Z,100.00
2023-01-12T10:28:16.163Z,100.00
2023-01-12T10:30:45.655Z,100.00
2023-01-12T10:33:25.409Z,100.00
2023-01-12T10:36:10.163Z,100.00
2023-01-12T10:39:01.531Z,100.00
2023-01-12T10:41:32.234Z,100.00
2023-01-12T10:44:00.708Z,100.00
2023-01-12T10:46:36.456Z,100.00
2023-01-12T10:49:20.204Z,100.00
2023-01-12T10:51:51.743Z,100.00
2023-01-12T10:54:22.895Z,100.00
2023-01-12T10:57:13.396Z,100.00
2023-01-12T10:59:50.161Z,100.00
2023-01-12T11:02:18.776Z,100.00
2023-01-12T11:04:51.796Z,100.00
2023-01-12T11:07:31.788Z,100.00
2023-01-12T11:10:35.882Z,100.00
2023-01-12T11:13:06.730Z,100.00
2023-01-12T11:15:39.381Z,100.00
2023-01-12T11:18:32.465Z,100.00
2023-01-12T11:21:16.127Z,100.00
2023-01-12T11:24:05.764Z,100.00
2023-01-12T11:26:50.760Z,100.00
2023-01-12T11:29:31.839Z,100.00
2023-01-12T11:32:08.920Z,100.00
2023-01-12T11:34:52.031Z,100.00
2023-01-12T11:37:20.716Z,100.00
2023-01-12T11:39:56.295Z,100.00
2023-01-12T11:42:48.205Z,100.00
2023-01-12T11:45:19.744Z,100.00
2023-01-12T11:48:28.368Z,100.00
2023-01-12T11:50:58.570Z,100.00
2023-01-12T11:53:27.187Z,100.00
2023-01-12T11:56:10.308Z,100.00
2023-01-12T11:58:55.674Z,100.00
2023-01-12T12:01:45.860Z,100.00
2023-01-12T12:04:29.506Z,100.00
2023-01-12T12:07:38.229Z,100.00
2023-01-12T12:10:16.095Z,100.00
2023-01-12T12:13:20.670Z,100.00
2023-01-12T12:15:52.006Z,100.00
2023-01-12T12:18:23.246Z,100.00
2023-01-12T12:21:01.252Z,100.00
2023-01-12T12:23:55.016Z,100.00
2023-01-12T12:26:28.928Z,100.00
2023-01-12T12:28:57.923Z,100.00
2023-01-12T12:31:26.432Z,100.00
2023-01-12T12:33:55.296Z,100.00
2023-01-12T12:36:32.900Z,100.00
2023-01-12T12:39:17.655Z,100.00
2023-01-12T12:42:14.805Z,100.00
2023-01-12T12:45:16.683Z,100.00
2023-01-12T12:47:52.221Z,100.00
2023-01-12T12:50:24.181Z,100.00
2023-01-12T12:53:33.730Z,100.00
2023-01-12T12:56:14.438Z,100.00
2023-01-12T12:58:46.465Z,100.00
2023-01-12T13:01:20.906Z,100.00
2023-01-12T13:03:51.301Z,100.00
2023-01-12T13:06:22.952Z,100.00
2023-01-12T13:08:56.856Z,100.00
2023-01-12T13:12:10.395Z,100.00
2023-01-12T13:14:41.756Z,100.00
2023-01-12T13:17:19.334Z,100.00
2023-01-12T13:20:24.131Z,100.00
2023-01-12T13:22:53.564Z,100.00
2023-01-12T13:25:26.654Z,100.00
2023-01-12T13:28:01.657Z,100.00
2023-01-12T13:30:30.529Z,100.00
2023-01-12T13:33:01.121Z,100.00
2023-01-12T13:35:49.867Z,100.00
2023-01-12T13:38:46.313Z,100.00
2023-01-12T13:41:15.401Z,100.00
2023-01-12T13:43:57.397Z,100.00
2023-01-12T13:46:47.948Z,100.00
2023-01-12T13:49:29.629Z,100.00
2023-01-12T13:52:21.614Z,100.00
2023-01-12T13:54:51.401Z,100.00
2023-01-12T13:57:23.666Z,100.00
2023-01-12T14:00:05.802Z,100.00
2023-01-12T14:02:41.913Z,100.00
2023-01-12T14:05:31.941Z,100.00
2023-01-12T14:08:32.282Z,100.00
2023-01-12T14:11:15.494Z,100.00
2023-01-12T14:13:46.842Z,100.00
2023-01-12T14:16:35.968Z,100.00
2023-01-12T14:19:28.279Z,100.00
2023-01-12T14:22:00.718Z,100.00
2023-01-12T14:24:29.818Z,100.00
2023-01-12T14:26:58.417Z,100.00
2023-01-12T14:29:27.082Z,100.00
2023-01-12T14:31:55.978Z,100.00
2023-01-12T14:34:29.994Z,100.00
2023-01-12T14:36:59.595Z,100.00
2023-01-12T14:39:31.359Z,100.00
2023-01-12T14:42:18.368Z,100.00
2023-01-12T14:45:09.900Z,100.00
2023-01-12T14:47:39.501Z,100.00
2023-01-12T14:50:14.227Z,100.00
2023-01-12T14:52:45.559Z,100.00
2023-01-12T14:55:26.438Z,100.00
2023-01-12T14:58:05.407Z,100.00
2023-01-12T15:00:36.935Z,100.00
2023-01-12T15:03:22.630Z,100.00
2023-01-12T15:05:55.487Z,100.00
2023-01-12T15:08:28.207Z,100.00
2023-01-12T15:10:56.963Z,100.00
2023-01-12T15:13:33.847Z,100.00
2023-01-12T15:16:23.537Z,100.00
2023-01-12T15:19:10.828Z,100.00
2023-01-12T15:22:00.917Z,100.00
2023-01-12T15:24:49.780Z,100.00
2023-01-12T15:27:21.443Z,100.00
2023-01-12T15:29:50.011Z,100.00
2023-01-12T15:32:51.399Z,100.00
2023-01-12T15:35:24.207Z,100.00
2023-01-12T15:37:58.881Z,100.00
2023-01-12T15:40:28.489Z,100.00
2023-01-12T15:42:59.337Z,100.00
2023-01-12T15:45:55.494Z,100.00
2023-01-12T15:48:24.235Z,100.00
2023-01-12T15:50:52.824Z,100.00
2023-01-12T15:53:23.041Z,100.00
2023-01-12T15:55:51.851Z,100.00
2023-01-12T15:58:20.412Z,100.00
2023-01-12T16:00:49.141Z,100.00
2023-01-12T16:03:49.076Z,100.00
2023-01-12T16:06:07.250Z,100.00
2023-01-12T16:08:35.939Z,100.00
2023-01-12T16:11:14.759Z,100.00
2023-01-12T16:13:43.954Z,100.00
2023-01-12T16:16:16.500Z,100.00
2023-01-12T16:18:46.242Z,100.00
2023-01-12T16:21:22.634Z,100.00
2023-01-12T16:23:51.193Z,100.00
2023-01-12T16:26:19.780Z,100.00
2023-01-12T16:28:49.483Z,100.00
2023-01-12T16:31:18.729Z,100.00
2023-01-12T16:33:47.673Z,100.00
2023-01-12T16:36:16.462Z,100.00
2023-01-12T16:38:44.945Z,100.00
2023-01-12T16:41:19.111Z,100.00
2023-01-12T16:43:47.532Z,100.00
2023-01-12T16:46:16.881Z,100.00
2023-01-12T16:48:45.520Z,100.00
2023-01-12T16:51:19.249Z,100.00
2023-01-12T16:53:47.708Z,100.00
2023-01-12T16:56:16.917Z,100.00
2023-01-12T16:58:48.688Z,100.00
2023-01-12T17:01:21.758Z,100.00
2023-01-12T17:03:51.266Z,100.00
2023-01-12T17:06:21.716Z,100.00
2023-01-12T17:08:50.468Z,100.00
2023-01-12T17:11:20.478Z,100.00
2023-01-12T17:13:52.407Z,100.00
2023-01-12T17:16:22.969Z,100.00
2023-01-12T17:18:54.757Z,100.00
2023-01-12T17:21:24.748Z,100.00
2023-01-12T17:23:53.533Z,100.00
2023-01-12T17:26:22.219Z,100.00
2023-01-12T17:28:50.913Z,100.00
2023-01-12T17:31:20.806Z,100.00
2023-01-12T17:33:50.835Z,100.00
2023-01-12T17:36:19.436Z,100.00
2023-01-12T17:38:48.030Z,100.00
2023-01-12T17:41:36.247Z,100.00
2023-01-12T17:44:07.206Z,100.00
2023-01-12T17:46:35.932Z,100.00
2023-01-12T17:49:07.699Z,100.00
2023-01-12T17:51:37.439Z,100.00
2023-01-12T17:54:08.078Z,100.00
2023-01-12T17:56:36.653Z,100.00
2023-01-12T17:59:06.162Z,100.00
2023-01-12T18:01:36.764Z,100.00
2023-01-12T18:04:05.375Z,100.00
2023-01-12T18:06:34.364Z,100.00
2023-01-12T18:09:03.870Z,100.00
2023-01-12T18:11:33.175Z,100.00
2023-01-12T18:14:01.686Z,100.00
2023-01-12T18:16:30.544Z,100.00
2023-01-12T18:18:59.645Z,100.00
2023-01-12T18:21:28.215Z,100.00
2023-01-12T18:23:58.145Z,100.00
2023-01-12T18:26:33.488Z,100.00
2023-01-12T18:29:04.621Z,100.00
2023-01-12T18:31:38.681Z,100.00
2023-01-12T18:34:08.145Z,100.00
2023-01-12T18:36:39.408Z,100.00
2023-01-12T18:39:11.863Z,100.00
2023-01-12T18:41:58.872Z,100.00
2023-01-12T18:44:27.862Z,100.00
2023-01-12T18:47:16.883Z,100.00
2023-01-12T18:49:49.710Z,100.00
2023-01-12T18:52:37.345Z,100.00
2023-01-12T18:55:06.538Z,100.00
2023-01-12T18:57:35.627Z,100.00
2023-01-12T19:00:18.102Z,100.00
2023-01-12T19:02:47.298Z,100.00
2023-01-12T19:05:19.411Z,100.00
2023-01-12T19:08:04.770Z,100.00
2023-01-12T19:10:36.324Z,100.00
2023-01-12T19:13:23.449Z,100.00
2023-01-12T19:16:10.561Z,100.00
2023-01-12T19:18:40.890Z,100.00
2023-01-12T19:21:28.110Z,100.00
2023-01-12T19:24:15.335Z,100.00
2023-01-12T19:27:02.347Z,100.00
2023-01-12T19:29:30.823Z,100.00
2023-01-12T19:31:59.407Z,100.00
2023-01-12T19:34:28.097Z,100.00
2023-01-12T19:36:56.573Z,100.00
2023-01-12T19:39:49.426Z,100.00
2023-01-12T19:42:39.618Z,100.00
2023-01-12T19:45:09.794Z,100.00
2023-01-12T19:47:38.419Z,100.00
2023-01-12T19:50:08.581Z,100.00
2023-01-12T19:52:40.402Z,100.00
2023-01-12T19:55:12.598Z,100.00
2023-01-12T19:57:43.322Z,100.00
2023-01-12T20:00:15.267Z,100.00
2023-01-12T20:02:44.630Z,100.00
2023-01-12T20:05:22.159Z,100.00
2023-01-12T20:07:52.975Z,100.00
2023-01-12T20:10:23.224Z,100.00
2023-01-12T20:12:52.665Z,100.00
2023-01-12T20:15:21.655Z,100.00
2023-01-12T20:17:51.133Z,100.00
2023-01-12T20:20:20.006Z,100.00
2023-01-12T20:22:50.224Z,100.00
2023-01-12T20:25:19.011Z,100.00
2023-01-12T20:27:50.793Z,100.00
2023-01-12T20:30:36.503Z,100.00
2023-01-12T20:33:07.090Z,100.00
2023-01-12T20:35:36.282Z,100.00
2023-01-12T20:38:07.147Z,100.00
2023-01-12T20:40:35.709Z,100.00
2023-01-12T20:43:04.291Z,100.00
2023-01-12T20:45:33.488Z,100.00
2023-01-12T20:48:01.979Z,100.00
2023-01-12T20:50:30.550Z,100.00
2023-01-12T20:52:59.744Z,100.00
2023-01-12T20:55:28.428Z,100.00
2023-01-12T20:57:56.937Z,100.00
2023-01-12T21:00:26.623Z,100.00
2023-01-12T21:02:55.309Z,100.00
2023-01-12T21:05:24.301Z,100.00
2023-01-12T21:08:00.050Z,100.00
2023-01-12T21:10:37.963Z,100.00
2023-01-12T21:13:07.351Z,100.00
2023-01-12T21:15:35.941Z,100.00
2023-01-12T21:18:04.826Z,100.00
2023-01-12T21:20:33.923Z,100.00
2023-01-12T21:23:02.506Z,100.00
2023-01-12T21:25:31.400Z,100.00
2023-01-12T21:28:00.188Z,100.00
2023-01-12T21:30:28.968Z,100.00
2023-01-12T21:32:57.862Z,100.00
2023-01-12T21:35:26.856Z,100.00
2023-01-12T21:37:55.446Z,100.00
2023-01-12T21:40:24.842Z,100.00
2023-01-12T21:43:08.722Z,100.00
2023-01-12T21:45:46.041Z,100.00
2023-01-12T21:48:16.280Z,100.00
2023-01-12T21:50:44.772Z,100.00
2023-01-12T21:53:16.328Z,100.00
2023-01-12T21:55:54.847Z,100.00
2023-01-12T21:58:28.654Z,100.00
2023-01-12T22:00:58.013Z,100.00
2023-01-12T22:03:30.034Z,100.00
2023-01-12T22:06:05.559Z,100.00
2023-01-12T22:08:36.462Z,100.00
2023-01-12T22:11:15.832Z,100.00
2023-01-12T22:13:45.131Z,100.00
2023-01-12T22:16:16.244Z,100.00
2023-01-12T22:18:47.417Z,100.00
2023-01-12T22:21:18.481Z,100.00
2023-01-12T22:23:47.559Z,100.00
2023-01-12T22:26:17.709Z,100.00
2023-01-12T22:28:48.351Z,100.00
2023-01-12T22:31:23.133Z,100.00
2023-01-12T22:34:02.980Z,100.00
2023-01-12T22:36:34.847Z,100.00
2023-01-12T22:39:04.259Z,100.00
2023-01-12T22:41:33.041Z,100.00
2023-01-12T22:44:01.613Z,100.00
2023-01-12T22:46:30.517Z,100.00
2023-01-12T22:49:02.375Z,100.00
2023-01-12T22:51:31.674Z,100.00
2023-01-12T22:54:00.390Z,100.00
2023-01-12T22:56:29.346Z,100.00
2023-01-12T22:58:58.075Z,100.00
2023-01-12T23:01:27.506Z,100.00
2023-01-12T23:03:57.842Z,100.00
2023-01-12T23:06:26.345Z,100.00
2023-01-12T23:08:55.272Z,100.00
2023-01-12T23:11:26.487Z,100.00
2023-01-12T23:13:55.270Z,100.00
2023-01-12T23:16:24.899Z,100.00
2023-01-12T23:18:55.816Z,100.00
2023-01-12T23:21:27.242Z,100.00
2023-01-12T23:23:58.337Z,100.00
2023-01-12T23:26:31.794Z,100.00
2023-01-12T23:29:03.485Z,100.00
2023-01-12T23:31:33.861Z,100.00
2023-01-12T23:34:02.673Z,100.00
2023-01-12T23:36:31.824Z,100.00
2023-01-12T23:39:03.793Z,100.00
2023-01-12T23:41:35.280Z,100.00
2023-01-12T23:44:08.167Z,100.00
2023-01-12T23:46:40.206Z,100.00
2023-01-12T23:49:10.720Z,100.00
2023-01-12T23:51:41.007Z,100.00
2023-01-12T23:54:15.392Z,100.00
2023-01-12T23:56:44.513Z,100.00
2023-01-12T23:59:14.141Z,100.00
